Weather at St-Remi-D'Amherst / Kanata Tremblant Resort Heliport

Public forecast

Using degrees Celsius for public forecast. Weather courtesy of forecast.io.

Closest aviation weather report (METAR) to St-Remi-D'Amherst / Kanata Tremblant Resort Heliport

Closest report is Montreal International (Mirabel) Airport, 35.2 nm (65.1 km) ESE. Retrieved 2020/11/30 18:00 UTC (36 minutes ago):

CYMX 301800Z 06006KT 020V090 15SM BKN050 OVC210 04/M00 A2979 RMK SC7CS1 SLP094

Closest aviation forecast (TAF) to St-Remi-D'Amherst / Kanata Tremblant Resort Heliport

Closest forecast is Montreal International (Mirabel) Airport, 35.2 nm (65.1 km) ESE. Retrieved 2020/11/30 18:42 UTC (0 seconds ago):

TAF CYMX 301738Z 3018/0118 06010KT P6SM OVC060 FM301900 06012KT P6SM -RA SCT020 OVC040 TEMPO 3019/3020 5SM -RA BR FEW006 OVC020 FM302000 05012G22KT 3SM -RA BR OVC010 TEMPO 3020/3024 2SM SHRA BR OVC003 FM010200 05008KT 3/4SM -DZ BR OVC003 FM010900 04008KT 1/4SM -DZ FG VV001 FM011500 07005KT 5SM -SHRA BR OVC012 RMK NXT FCST BY 010000Z